createdAt,value
2023-03-22T00:00:44.042Z,14.60
2023-03-22T00:03:13.234Z,13.00
2023-03-22T00:05:47.373Z,15.63
2023-03-22T00:08:18.551Z,14.70
2023-03-22T00:10:48.190Z,15.03
2023-03-22T00:13:15.162Z,16.23
2023-03-22T00:15:49.008Z,13.23
2023-03-22T00:18:19.340Z,15.13
2023-03-22T00:20:55.603Z,15.73
2023-03-22T00:23:26.480Z,13.63
2023-03-22T00:25:53.318Z,14.40
2023-03-22T00:28:20.667Z,17.33
2023-03-22T00:30:57.542Z,13.73
2023-03-22T00:33:31.454Z,15.03
2023-03-22T00:36:05.465Z,14.63
2023-03-22T00:38:45.152Z,15.33
2023-03-22T00:41:23.124Z,13.43
2023-03-22T00:43:51.570Z,12.27
2023-03-22T00:46:21.053Z,12.60
2023-03-22T00:48:52.687Z,14.13
2023-03-22T00:51:22.017Z,15.23
2023-03-22T00:53:52.229Z,12.30
2023-03-22T00:56:28.680Z,14.77
2023-03-22T00:59:01.125Z,12.17
2023-03-22T01:01:33.857Z,11.03
2023-03-22T01:04:03.072Z,12.40
2023-03-22T01:06:33.345Z,13.87
2023-03-22T01:09:04.886Z,11.13
2023-03-22T01:11:31.841Z,10.40
2023-03-22T01:13:59.482Z,12.07
2023-03-22T01:16:31.168Z,11.63
2023-03-22T01:19:03.433Z,10.87
2023-03-22T01:21:32.628Z,10.90
2023-03-22T01:24:01.541Z,11.30
2023-03-22T01:26:31.315Z,9.43
2023-03-22T01:29:05.941Z,10.30
2023-03-22T01:31:35.577Z,12.27
2023-03-22T01:34:04.705Z,10.17
2023-03-22T01:36:37.263Z,11.27
2023-03-22T01:39:06.920Z,10.40
2023-03-22T01:41:37.381Z,12.10
2023-03-22T01:44:23.319Z,9.20
2023-03-22T01:46:52.734Z,9.97
2023-03-22T01:49:29.038Z,10.90
2023-03-22T01:52:01.934Z,10.23
2023-03-22T01:54:54.979Z,10.10
2023-03-22T01:57:47.264Z,8.57
2023-03-22T02:00:23.541Z,9.40
2023-03-22T02:03:07.661Z,10.43
2023-03-22T02:05:41.122Z,9.40
2023-03-22T02:08:08.839Z,8.90
2023-03-22T02:10:54.242Z,8.27
2023-03-22T02:14:32.657Z,8.47
2023-03-22T02:18:19.394Z,11.03
2023-03-22T02:21:31.396Z,8.23
2023-03-22T02:24:34.720Z,8.20
2023-03-22T02:27:54.399Z,7.70
2023-03-22T02:31:01.091Z,7.67
2023-03-22T02:33:57.310Z,8.13
2023-03-22T02:37:09.514Z,7.00
2023-03-22T02:39:56.557Z,7.80
2023-03-22T02:42:55.706Z,8.97
2023-03-22T02:45:35.390Z,7.63
2023-03-22T02:48:21.364Z,7.87
2023-03-22T02:51:18.145Z,9.40
2023-03-22T02:54:09.141Z,8.83
2023-03-22T02:56:49.748Z,6.60
2023-03-22T02:59:19.837Z,7.57
2023-03-22T03:01:57.172Z,6.90
2023-03-22T03:04:34.311Z,7.13
2023-03-22T03:07:07.703Z,7.37
2023-03-22T03:09:41.654Z,6.47
2023-03-22T03:12:23.339Z,6.90
2023-03-22T03:14:52.466Z,7.47
2023-03-22T03:17:53.392Z,8.70
2023-03-22T03:20:54.377Z,7.43
2023-03-22T03:24:07.907Z,7.03
2023-03-22T03:27:08.176Z,7.63
2023-03-22T03:29:45.854Z,6.57
2023-03-22T03:32:19.210Z,6.63
2023-03-22T03:34:57.811Z,7.00
2023-03-22T03:37:52.750Z,6.13
2023-03-22T03:40:33.177Z,6.90
2023-03-22T03:43:07.028Z,6.53
2023-03-22T03:45:36.791Z,6.10
2023-03-22T03:48:16.519Z,7.57
2023-03-22T03:50:50.875Z,8.13
2023-03-22T03:53:20.918Z,7.17
2023-03-22T03:55:47.922Z,8.33
2023-03-22T03:58:17.927Z,6.93
2023-03-22T04:00:47.338Z,6.83
2023-03-22T04:03:37.719Z,7.80
2023-03-22T04:06:24.828Z,7.50
2023-03-22T04:08:56.506Z,7.67
2023-03-22T04:11:32.590Z,7.60
2023-03-22T04:14:05.943Z,8.83
2023-03-22T04:16:35.745Z,7.27
2023-03-22T04:19:02.934Z,7.83
2023-03-22T04:21:34.281Z,8.00
2023-03-22T04:24:05.504Z,8.80
2023-03-22T04:26:37.177Z,9.17
2023-03-22T04:29:13.674Z,7.73
2023-03-22T04:31:49.897Z,7.40
2023-03-22T04:34:39.674Z,8.43
2023-03-22T04:37:11.995Z,9.07
2023-03-22T04:39:47.203Z,8.63
2023-03-22T04:42:35.407Z,8.47
2023-03-22T04:45:12.793Z,8.73
2023-03-22T04:47:46.021Z,11.17
2023-03-22T04:50:15.240Z,10.50
2023-03-22T04:52:49.812Z,10.33
2023-03-22T04:55:17.281Z,9.77
2023-03-22T04:57:47.507Z,9.77
2023-03-22T05:00:15.456Z,10.73
2023-03-22T05:02:45.419Z,11.63
2023-03-22T05:05:30.488Z,10.70
2023-03-22T05:08:00.306Z,10.07
2023-03-22T05:10:29.446Z,12.10
2023-03-22T05:13:00.439Z,11.37
2023-03-22T05:15:32.756Z,11.00
2023-03-22T05:18:03.397Z,9.50
2023-03-22T05:20:30.232Z,10.87
2023-03-22T05:23:13.384Z,13.83
2023-03-22T05:25:48.331Z,11.07
2023-03-22T05:28:21.337Z,10.43
2023-03-22T05:31:05.690Z,14.63
2023-03-22T05:33:50.556Z,13.63
2023-03-22T05:36:25.457Z,10.20
2023-03-22T05:39:14.805Z,14.37
2023-03-22T05:41:44.789Z,11.57
2023-03-22T05:44:14.221Z,9.80
2023-03-22T05:46:52.550Z,13.03
2023-03-22T05:49:29.833Z,10.63
2023-03-22T05:51:56.846Z,12.07
2023-03-22T05:54:27.953Z,12.27
2023-03-22T05:56:56.996Z,12.10
2023-03-22T05:59:26.601Z,12.20
2023-03-22T06:01:58.167Z,11.77
2023-03-22T06:04:25.970Z,11.13
2023-03-22T06:07:03.480Z,9.80
2023-03-22T06:09:44.914Z,13.27
2023-03-22T06:12:17.313Z,11.87
2023-03-22T06:14:49.102Z,11.67
2023-03-22T06:17:28.412Z,9.63
2023-03-22T06:20:01.283Z,11.80
2023-03-22T06:22:33.226Z,8.40
2023-03-22T06:25:01.131Z,9.40
2023-03-22T06:27:36.178Z,8.87
2023-03-22T06:30:06.637Z,8.60
2023-03-22T06:32:42.081Z,9.90
2023-03-22T06:35:09.434Z,8.53
2023-03-22T06:37:38.773Z,8.90
2023-03-22T06:40:10.326Z,8.90
2023-03-22T06:42:37.305Z,12.73
2023-03-22T06:45:16.229Z,8.83
2023-03-22T06:47:45.234Z,9.80
2023-03-22T06:50:45.326Z,8.73
2023-03-22T06:53:17.632Z,9.57
2023-03-22T06:55:46.838Z,8.80
2023-03-22T06:58:20.639Z,7.93
2023-03-22T07:00:49.655Z,13.53
2023-03-22T07:03:19.245Z,8.03
2023-03-22T07:06:05.386Z,8.37
2023-03-22T07:08:37.121Z,8.30
2023-03-22T07:11:06.539Z,7.43
2023-03-22T07:13:34.165Z,7.03
2023-03-22T07:16:08.401Z,9.20
2023-03-22T07:18:41.802Z,7.60
2023-03-22T07:21:14.205Z,8.30
2023-03-22T07:23:45.144Z,7.60
2023-03-22T07:26:17.554Z,7.00
2023-03-22T07:28:55.009Z,7.50
2023-03-22T07:31:27.226Z,6.97
2023-03-22T07:34:03.920Z,7.70
2023-03-22T07:36:38.335Z,6.10
2023-03-22T07:39:10.702Z,5.67
2023-03-22T07:41:42.582Z,7.27
2023-03-22T07:44:29.858Z,5.80
2023-03-22T07:47:40.084Z,6.17
2023-03-22T07:50:29.016Z,5.93
2023-03-22T07:52:59.187Z,6.40
2023-03-22T07:55:26.039Z,6.57
2023-03-22T07:57:57.449Z,7.40
2023-03-22T08:00:27.033Z,8.30
2023-03-22T08:03:15.923Z,7.27
2023-03-22T08:05:59.263Z,6.23
2023-03-22T08:08:28.798Z,6.33
2023-03-22T08:10:55.866Z,6.47
2023-03-22T08:13:25.833Z,5.70
2023-03-22T08:15:54.913Z,5.83
2023-03-22T08:18:24.727Z,5.13
2023-03-22T08:20:59.849Z,6.73
2023-03-22T08:23:41.423Z,6.07
2023-03-22T08:26:15.982Z,5.30
2023-03-22T08:28:46.055Z,4.77
2023-03-22T08:31:16.335Z,5.73
2023-03-22T08:33:50.425Z,5.40
2023-03-22T08:36:25.573Z,4.60
2023-03-22T08:39:01.477Z,6.07
2023-03-22T08:41:45.689Z,4.00
2023-03-22T08:44:14.824Z,4.40
2023-03-22T08:46:41.671Z,3.77
2023-03-22T08:49:14.967Z,20.03
2023-03-22T08:51:47.862Z,6.20
2023-03-22T08:54:33.410Z,3.87
2023-03-22T08:57:09.280Z,3.37
2023-03-22T09:00:10.994Z,3.37
2023-03-22T09:02:44.753Z,4.90
2023-03-22T09:05:14.196Z,4.60
2023-03-22T09:07:44.744Z,3.67
2023-03-22T09:10:26.566Z,4.63
2023-03-22T09:12:53.777Z,3.47
2023-03-22T09:15:23.441Z,2.67
2023-03-22T09:18:07.547Z,3.67
2023-03-22T09:20:40.048Z,3.20
2023-03-22T09:23:15.973Z,4.83
2023-03-22T09:25:48.895Z,2.60
2023-03-22T09:28:25.491Z,2.10
2023-03-22T09:31:03.916Z,2.40
2023-03-22T09:33:30.964Z,2.30
2023-03-22T09:35:57.906Z,2.17
2023-03-22T09:38:25.423Z,4.10
2023-03-22T09:41:04.986Z,2.93
2023-03-22T09:43:42.446Z,3.67
2023-03-22T09:46:40.803Z,2.07
2023-03-22T09:49:22.843Z,3.03
2023-03-22T09:51:55.873Z,2.97
2023-03-22T09:54:46.187Z,2.23
2023-03-22T09:57:28.445Z,2.23
2023-03-22T10:00:20.935Z,2.60
2023-03-22T10:03:32.380Z,4.57
2023-03-22T10:06:11.534Z,2.87
2023-03-22T10:08:57.240Z,3.63
2023-03-22T10:11:46.943Z,3.30
2023-03-22T10:14:41.248Z,3.57
2023-03-22T10:17:18.672Z,1.83
2023-03-22T10:19:54.193Z,2.97
2023-03-22T10:22:30.063Z,4.37
2023-03-22T10:25:00.241Z,2.77
2023-03-22T10:27:36.823Z,1.77
2023-03-22T10:30:24.485Z,2.60
2023-03-22T10:33:03.398Z,2.37
2023-03-22T10:35:33.602Z,2.27
2023-03-22T10:38:09.302Z,2.40
2023-03-22T10:40:42.225Z,2.73
2023-03-22T10:43:36.369Z,1.40
2023-03-22T10:46:18.275Z,2.03
2023-03-22T10:48:55.242Z,3.37
2023-03-22T10:51:39.878Z,3.90
2023-03-22T10:54:18.787Z,1.13
2023-03-22T10:56:51.083Z,2.13
2023-03-22T10:59:55.257Z,1.43
2023-03-22T11:02:28.608Z,1.03
2023-03-22T11:05:02.078Z,0.90
2023-03-22T11:07:44.570Z,1.10
2023-03-22T11:10:24.552Z,1.37
2023-03-22T11:12:55.096Z,1.27
2023-03-22T11:15:33.102Z,1.50
2023-03-22T11:18:16.600Z,2.67
2023-03-22T11:20:57.856Z,1.30
2023-03-22T11:23:38.453Z,1.70
2023-03-22T11:26:15.969Z,2.83
2023-03-22T11:28:51.164Z,1.77
2023-03-22T11:31:21.123Z,1.40
2023-03-22T11:33:58.798Z,1.63
2023-03-22T11:36:30.235Z,1.53
2023-03-22T11:39:06.433Z,1.30
2023-03-22T11:41:39.264Z,1.70
2023-03-22T11:44:15.899Z,2.30
2023-03-22T11:47:10.190Z,3.23
2023-03-22T11:49:49.935Z,1.37
2023-03-22T11:52:26.856Z,1.67
2023-03-22T11:55:00.113Z,1.03
2023-03-22T11:57:36.076Z,1.63
2023-03-22T12:00:15.416Z,1.50
2023-03-22T12:03:09.279Z,0.90
2023-03-22T12:05:46.448Z,1.20
2023-03-22T12:08:42.801Z,1.07
2023-03-22T12:11:39.901Z,1.00
2023-03-22T12:14:26.565Z,1.13
2023-03-22T12:16:57.638Z,1.80
2023-03-22T12:19:42.454Z,1.23
2023-03-22T12:22:24.667Z,1.73
2023-03-22T12:24:54.516Z,1.77
2023-03-22T12:27:43.698Z,1.27
2023-03-22T12:30:22.024Z,1.17
2023-03-22T12:33:14.591Z,1.20
2023-03-22T12:35:48.455Z,1.67
2023-03-22T12:38:46.095Z,1.50
2023-03-22T12:41:23.517Z,1.17
2023-03-22T12:44:17.800Z,0.80
2023-03-22T12:46:58.624Z,1.10
2023-03-22T12:49:53.990Z,1.20
2023-03-22T12:52:44.729Z,1.43
2023-03-22T12:55:30.638Z,1.27
2023-03-22T12:58:06.006Z,2.80
2023-03-22T13:01:30.053Z,0.97
2023-03-22T13:03:59.200Z,1.40
2023-03-22T13:07:10.142Z,1.33
2023-03-22T13:09:44.371Z,1.43
2023-03-22T13:12:17.371Z,1.00
2023-03-22T13:15:03.376Z,0.70
2023-03-22T13:17:30.163Z,1.13
2023-03-22T13:20:06.735Z,1.43
2023-03-22T13:22:38.644Z,1.00
2023-03-22T13:25:16.674Z,1.03
2023-03-22T13:27:46.303Z,0.80
2023-03-22T13:30:27.094Z,0.90
2023-03-22T13:33:08.727Z,1.30
2023-03-22T13:35:46.053Z,0.87
2023-03-22T13:38:27.790Z,0.90
2023-03-22T13:41:21.014Z,1.43
2023-03-22T13:43:51.802Z,1.33
2023-03-22T13:46:21.533Z,1.20
2023-03-22T13:48:49.045Z,1.63
2023-03-22T13:51:21.909Z,2.00
2023-03-22T13:54:08.989Z,2.67
2023-03-22T13:56:47.846Z,1.30
2023-03-22T13:59:29.734Z,1.10
2023-03-22T14:02:16.021Z,1.33
2023-03-22T14:05:25.014Z,1.20
2023-03-22T14:08:00.228Z,1.60
2023-03-22T14:10:51.240Z,2.30
2023-03-22T14:13:31.847Z,0.83
2023-03-22T14:16:11.886Z,1.13
2023-03-22T14:18:46.934Z,1.23
2023-03-22T14:21:23.463Z,0.80
